Time;durP1;ratioP1;P1;durP2;ratioP2;P2;SDS_P1;SDS_P2;PMS_P1;PMS_P2;Temp;Humidity;BMP_temperature;BMP_pressure;BME280_temperature;BME280_humidity;BME280_pressure;Samples;Min_cycle;Max_cycle;Signal;HPM_P1;HPM_P2
2021/01/14 00:02:20;;;;;;;43.65;21.27;;;;;;;0.92;80.59;98802.25;4934564;29;20059;-63
2021/01/14 00:04:46;;;;;;;51.00;22.65;;;;;;;0.86;80.56;98810.13;4935786;29;20422;-61
2021/01/14 00:07:12;;;;;;;50.47;22.67;;;;;;;0.83;80.83;98807.59;4934929;29;20040;-64
2021/01/14 00:09:38;;;;;;;52.53;22.25;;;;;;;0.78;80.77;98812.88;4935579;29;20047;-62
2021/01/14 00:12:06;;;;;;;50.60;23.20;;;;;;;0.77;80.75;98803.44;4935025;29;20147;-63
2021/01/14 00:14:32;;;;;;;46.78;22.55;;;;;;;0.74;80.44;98806.09;4935682;29;20047;-61
2021/01/14 00:16:58;;;;;;;50.90;25.73;;;;;;;0.69;80.55;98801.91;4934928;29;20044;-62
2021/01/14 00:19:24;;;;;;;58.75;26.50;;;;;;;0.61;80.63;98800.31;4935278;29;20055;-63
2021/01/14 00:21:51;;;;;;;59.42;26.17;;;;;;;0.56;80.56;98811.63;4934319;29;20114;-62
2021/01/14 00:24:17;;;;;;;64.47;27.83;;;;;;;0.53;80.70;98811.69;4933239;29;20044;-62
2021/01/14 00:26:45;;;;;;;61.85;28.08;;;;;;;0.53;80.78;98809.13;4935196;29;20126;-63
2021/01/14 00:29:12;;;;;;;54.95;25.83;;;;;;;0.53;80.46;98816.84;4934841;29;20110;-62
2021/01/14 00:31:38;;;;;;;65.97;29.15;;;;;;;0.52;80.40;98815.16;4933423;29;20519;-62
2021/01/14 00:34:04;;;;;;;60.78;28.30;;;;;;;0.53;80.57;98822.00;4935174;29;20131;-62
2021/01/14 00:37:50;;;;;;;61.80;26.13;;;;;;;0.48;80.52;98816.94;4935181;29;20047;-63
2021/01/14 00:39:20;;;;;;;57.85;24.23;;;;;;;0.48;80.56;98816.09;4932692;29;20055;-63
2021/01/14 00:41:46;;;;;;;56.88;23.58;;;;;;;0.48;80.50;98811.78;4934718;29;20055;-63
2021/01/14 00:44:13;;;;;;;53.03;23.83;;;;;;;0.50;80.59;98811.75;4934571;29;20098;-62
2021/01/14 00:46:40;;;;;;;50.17;23.50;;;;;;;0.52;80.55;98817.75;4934515;29;20103;-63
2021/01/14 00:49:06;;;;;;;51.53;23.05;;;;;;;0.54;80.46;98818.56;4934681;29;20052;-63
2021/01/14 00:51:34;;;;;;;53.60;25.55;;;;;;;0.58;80.40;98815.03;4934025;29;20128;-63
2021/01/14 00:54:00;;;;;;;82.65;29.88;;;;;;;0.58;80.53;98815.03;4934726;29;20043;-62
2021/01/14 00:56:31;;;;;;;80.85;30.58;;;;;;;0.59;80.55;98814.13;4935009;29;20047;-63
2021/01/14 00:58:57;;;;;;;77.88;30.15;;;;;;;0.64;80.18;98819.22;4930499;29;20468;-62
2021/01/14 01:01:24;;;;;;;67.68;28.98;;;;;;;0.63;80.29;98820.94;4934112;29;20459;-64
2021/01/14 01:03:51;;;;;;;63.05;27.98;;;;;;;0.66;80.22;98820.03;4929994;29;20055;-62
2021/01/14 01:06:18;;;;;;;52.40;25.25;;;;;;;0.68;80.36;98819.13;4934532;29;20052;-63
2021/01/14 01:08:44;;;;;;;55.25;24.27;;;;;;;0.72;80.01;98825.91;4933774;29;20522;-61
2021/01/14 01:11:10;;;;;;;50.42;23.38;;;;;;;0.76;80.21;98830.09;4933877;29;20503;-62
2021/01/14 01:13:36;;;;;;;63.83;24.77;;;;;;;0.78;80.01;98818.03;4934009;29;20468;-63
2021/01/14 01:16:02;;;;;;;52.63;24.55;;;;;;;0.81;80.04;98820.53;4934181;29;20047;-62
2021/01/14 01:18:29;;;;;;;52.30;25.42;;;;;;;0.80;80.10;98821.41;4934778;29;20135;-62
2021/01/14 01:20:55;;;;;;;52.53;23.73;;;;;;;0.80;79.96;98812.84;4933652;29;20528;-63
2021/01/14 01:23:21;;;;;;;48.90;23.65;;;;;;;0.80;79.81;98812.84;4934365;29;20159;-62
2021/01/14 01:25:47;;;;;;;52.95;25.70;;;;;;;0.81;79.98;98820.53;4934605;29;20052;-63
2021/01/14 01:28:13;;;;;;;54.47;23.63;;;;;;;0.81;80.07;98812.78;4934324;29;20047;-62
2021/01/14 01:30:39;;;;;;;55.55;24.55;;;;;;;0.88;79.95;98818.69;4934073;29;20055;-62
2021/01/14 01:33:05;;;;;;;55.65;27.60;;;;;;;0.89;79.74;98813.50;4934352;29;20040;-62
2021/01/14 01:35:32;;;;;;;53.78;25.33;;;;;;;0.91;79.83;98811.72;4933770;29;20131;-62
2021/01/14 01:37:58;;;;;;;52.17;23.95;;;;;;;0.90;79.97;98809.19;4934621;29;20134;-61
2021/01/14 01:40:25;;;;;;;51.92;23.88;;;;;;;0.95;79.76;98806.50;4934075;29;20050;-63
2021/01/14 01:42:54;;;;;;;53.35;24.48;;;;;;;0.95;79.69;98802.19;4934241;29;20052;-63
2021/01/14 01:45:20;;;;;;;60.50;24.98;;;;;;;0.98;79.86;98806.41;4934139;29;20087;-63
2021/01/14 01:47:47;;;;;;;58.22;25.55;;;;;;;0.95;79.83;98803.91;4933960;29;20319;-63
2021/01/14 01:50:13;;;;;;;55.47;26.63;;;;;;;0.94;79.92;98802.22;4933981;29;20505;-62
2021/01/14 01:52:40;;;;;;;57.47;26.38;;;;;;;0.95;79.97;98807.34;4935730;29;20444;-61
2021/01/14 01:55:08;;;;;;;61.45;26.92;;;;;;;0.99;79.69;98805.53;4938428;29;20051;-62
2021/01/14 01:57:35;;;;;;;74.03;31.92;;;;;;;1.02;79.58;98810.63;4938417;29;20044;-63
2021/01/14 02:00:01;;;;;;;73.38;32.35;;;;;;;1.01;79.66;98808.94;4941659;29;20051;-63
2021/01/14 02:02:28;;;;;;;63.47;30.73;;;;;;;0.99;79.72;98810.69;4940639;29;20048;-63
2021/01/14 02:04:55;;;;;;;73.90;30.27;;;;;;;0.98;79.90;98815.00;4938266;29;20126;-62
2021/01/14 02:07:30;;;;;;;69.13;28.92;;;;;;;0.99;79.99;98811.53;4938008;29;20055;-64
2021/01/14 02:09:58;;;;;;;63.45;28.55;;;;;;;0.98;80.40;98809.84;4938403;29;20494;-62
2021/01/14 02:12:33;;;;;;;68.15;30.13;;;;;;;0.99;80.40;98813.28;4933722;29;20134;-63
2021/01/14 02:15:01;;;;;;;69.22;30.75;;;;;;;1.00;80.33;98812.38;4938123;29;20048;-62
2021/01/14 02:17:28;;;;;;;72.50;32.50;;;;;;;0.97;80.41;98802.13;4936046;29;20134;-61
2021/01/14 02:19:55;;;;;;;78.32;35.88;;;;;;;0.94;80.36;98809.97;4937861;29;20078;-61
2021/01/14 02:22:26;;;;;;;81.00;34.63;;;;;;;0.88;80.96;98810.94;4937118;29;20155;-64
2021/01/14 02:25:03;;;;;;;57.03;23.80;;;;;;;0.89;80.74;98816.06;4938111;29;20487;-63
2021/01/14 02:27:33;;;;;;;76.15;32.80;;;;;;;0.88;80.78;98814.38;4936289;29;20106;-63
2021/01/14 02:30:01;;;;;;;75.07;34.08;;;;;;;0.91;80.81;98818.63;4937373;29;20048;-63
2021/01/14 02:32:28;;;;;;;75.78;33.20;;;;;;;0.96;80.76;98828.81;4933532;29;20139;-63
2021/01/14 02:34:54;;;;;;;75.40;34.22;;;;;;;0.98;80.86;98820.16;4937629;29;20051;-63
2021/01/14 02:37:20;;;;;;;68.05;30.75;;;;;;;1.03;80.77;98822.63;4937625;29;20051;-63
2021/01/14 02:39:46;;;;;;;72.05;30.42;;;;;;;1.07;80.78;98825.13;4937464;29;20463;-62
2021/01/14 02:42:12;;;;;;;68.32;30.38;;;;;;;1.13;80.60;98829.31;4937164;29;20070;-65
2021/01/14 02:44:39;;;;;;;65.55;31.25;;;;;;;1.16;80.70;98827.50;4937768;29;20090;-61
2021/01/14 02:47:08;;;;;;;64.95;29.45;;;;;;;1.19;80.65;98824.84;4936979;29;20053;-63
2021/01/14 02:49:39;;;;;;;70.78;29.10;;;;;;;1.23;80.45;98834.19;4936745;29;20419;-62
2021/01/14 02:52:08;;;;;;;66.18;30.42;;;;;;;1.27;80.55;98829.84;4936871;29;20043;-62
2021/01/14 02:54:36;;;;;;;59.30;30.55;;;;;;;1.30;80.56;98840.09;4933194;29;20058;-62
2021/01/14 02:57:02;;;;;;;68.75;30.20;;;;;;;1.33;80.31;98840.00;4936918;29;20056;-62
2021/01/14 02:59:28;;;;;;;64.85;28.33;;;;;;;1.36;80.42;98841.66;4936410;29;20139;-62
2021/01/14 03:01:55;;;;;;;51.90;26.00;;;;;;;1.38;80.45;98843.31;4935974;29;20401;-64
2021/01/14 03:04:21;;;;;;;58.60;27.15;;;;;;;1.40;80.37;98838.13;4936725;29;20059;-62
2021/01/14 03:06:47;;;;;;;71.45;27.80;;;;;;;1.37;80.22;98838.22;4936790;29;20138;-64
2021/01/14 03:09:14;;;;;;;64.72;27.92;;;;;;;1.32;80.36;98835.75;4936742;29;20056;-63
2021/01/14 03:11:40;;;;;;;66.18;29.40;;;;;;;1.32;80.45;98838.31;4936508;29;20047;-62
2021/01/14 03:14:06;;;;;;;73.93;29.52;;;;;;;1.33;80.20;98844.34;4936634;29;20048;-62
2021/01/14 03:16:36;;;;;;;69.82;30.17;;;;;;;1.33;80.10;98841.75;4936675;29;20051;-63
2021/01/14 03:19:03;;;;;;;65.60;29.73;;;;;;;1.31;80.17;98841.78;4936546;29;20051;-63
2021/01/14 03:21:29;;;;;;;67.65;32.15;;;;;;;1.30;79.95;98842.69;4935891;29;20500;-63
2021/01/14 03:23:55;;;;;;;75.03;32.55;;;;;;;1.31;79.90;98844.38;4936589;29;20130;-61
2021/01/14 03:26:21;;;;;;;68.47;30.23;;;;;;;1.29;79.95;98851.31;4936099;29;20554;-62
2021/01/14 03:32:09;;;;;;;;;;;;;;;1.31;79.88;98846.09;4936763;29;20059;-62
2021/01/14 03:34:36;;;;;;;50.22;22.80;;;;;;;1.16;80.09;98849.88;4936764;29;19923;-62
2021/01/14 03:37:02;;;;;;;51.25;24.98;;;;;;;1.14;80.08;98846.47;4935835;29;20407;-63
2021/01/14 03:39:30;;;;;;;62.35;26.30;;;;;;;1.13;80.26;98852.53;4936750;29;20047;-63
2021/01/14 03:41:57;;;;;;;60.38;24.33;;;;;;;1.12;80.08;98862.00;4935564;29;20397;-62
2021/01/14 03:44:24;;;;;;;60.00;26.42;;;;;;;1.08;80.05;98852.63;4936090;29;20059;-63
2021/01/14 03:46:51;;;;;;;57.17;28.20;;;;;;;1.07;79.97;98852.69;4936243;29;20052;-63
2021/01/14 03:49:18;;;;;;;59.85;25.98;;;;;;;1.04;79.91;98857.88;4936745;29;20074;-62
2021/01/14 03:51:46;;;;;;;54.60;24.45;;;;;;;0.97;79.87;98856.31;4935595;29;20558;-63
2021/01/14 03:54:12;;;;;;;53.22;25.33;;;;;;;0.91;80.07;98855.59;4936066;29;20043;-64
2021/01/14 03:56:40;;;;;;;54.22;25.55;;;;;;;0.89;79.93;98851.34;4936366;29;20050;-63
2021/01/14 03:59:06;;;;;;;56.25;26.05;;;;;;;0.87;79.81;98856.53;4935672;29;20048;-63
2021/01/14 04:01:33;;;;;;;60.25;26.35;;;;;;;0.85;79.89;98860.88;4935782;29;20044;-62
2021/01/14 04:03:59;;;;;;;54.42;25.33;;;;;;;0.83;79.78;98860.06;4936217;29;20403;-62
2021/01/14 04:06:33;;;;;;;59.55;25.20;;;;;;;0.75;79.81;98859.38;4935439;29;20052;-62
2021/01/14 04:09:00;;;;;;;56.13;24.70;;;;;;;0.72;79.63;98864.59;4935739;29;20499;-62
2021/01/14 04:11:27;;;;;;;57.40;25.05;;;;;;;0.68;79.84;98860.38;4935996;29;20048;-62
2021/01/14 04:13:53;;;;;;;55.95;23.98;;;;;;;0.67;79.63;98866.44;4936204;29;20054;-62
2021/01/14 04:16:19;;;;;;;54.17;24.88;;;;;;;0.64;79.64;98858.75;4935474;29;20048;-62
2021/01/14 04:18:45;;;;;;;50.20;23.13;;;;;;;0.59;79.78;98869.13;4936322;29;20051;-63
2021/01/14 04:21:13;;;;;;;55.70;25.20;;;;;;;0.56;79.69;98865.78;4935434;29;20063;-62
2021/01/14 04:23:39;;;;;;;54.80;23.88;;;;;;;0.51;79.65;98868.47;4936139;29;20051;-62
2021/01/14 04:26:06;;;;;;;59.95;24.75;;;;;;;0.48;79.74;98878.84;4936267;29;20050;-62
2021/01/14 04:28:32;;;;;;;65.95;25.63;;;;;;;0.47;79.54;98877.13;4935564;29;20238;-62
2021/01/14 04:30:58;;;;;;;63.83;27.08;;;;;;;0.47;79.59;98884.03;4934745;29;20126;-62
2021/01/14 04:33:24;;;;;;;58.60;25.92;;;;;;;0.48;79.59;98891.72;4936103;29;20054;-63
2021/01/14 04:35:52;;;;;;;59.85;25.33;;;;;;;0.51;79.61;98901.13;4935789;29;20052;-62
2021/01/14 04:38:20;;;;;;;65.35;25.45;;;;;;;0.53;79.83;98900.22;4935882;29;20079;-63
2021/01/14 04:40:46;;;;;;;65.82;26.33;;;;;;;0.56;79.69;98904.47;4935677;29;20086;-62
2021/01/14 04:43:14;;;;;;;63.33;26.83;;;;;;;0.58;79.77;98908.72;4934784;29;20119;-62
2021/01/14 04:45:42;;;;;;;74.70;29.83;;;;;;;0.61;79.49;98911.22;4935600;29;20134;-62
2021/01/14 04:48:10;;;;;;;80.15;35.35;;;;;;;0.66;79.54;98910.31;4934547;29;20044;-63
2021/01/14 04:50:37;;;;;;;90.22;37.33;;;;;;;0.69;79.67;98911.09;4935608;29;20044;-65
2021/01/14 04:53:05;;;;;;;109.72;40.00;;;;;;;0.74;79.52;98911.84;4934463;29;20400;-62
2021/01/14 04:55:42;;;;;;;102.00;41.28;;;;;;;0.77;79.57;98916.94;4935582;29;20051;-62
2021/01/14 04:58:14;;;;;;;93.03;39.13;;;;;;;0.82;79.40;98920.25;4935744;29;20044;-62
2021/01/14 05:00:46;;;;;;;87.25;34.97;;;;;;;0.86;79.58;98926.22;4935123;29;20134;-62
2021/01/14 05:03:14;;;;;;;79.63;34.03;;;;;;;0.89;79.50;98923.59;4935334;29;20640;-61
2021/01/14 05:05:46;;;;;;;80.85;34.55;;;;;;;0.92;79.47;98923.53;4935697;29;20051;-66
2021/01/14 05:08:15;;;;;;;74.20;32.92;;;;;;;0.97;79.63;98924.28;4935796;29;20180;-66
2021/01/14 05:10:43;;;;;;;70.95;30.55;;;;;;;1.01;79.73;98932.78;4935358;29;20047;-67
2021/01/14 05:13:09;;;;;;;71.20;28.55;;;;;;;1.04;79.43;98932.72;4935523;29;20052;-67
2021/01/14 05:15:37;;;;;;;66.07;28.60;;;;;;;1.06;79.53;98934.41;4934292;29;20500;-67
2021/01/14 05:18:05;;;;;;;66.55;28.95;;;;;;;1.08;79.55;98944.72;4932852;29;20363;-66
2021/01/14 05:20:31;;;;;;;62.72;28.42;;;;;;;1.12;79.44;98946.34;4934156;29;20215;-67
2021/01/14 05:22:58;;;;;;;64.97;27.23;;;;;;;1.13;79.39;98940.28;4934579;29;20058;-67
2021/01/14 05:25:24;;;;;;;64.63;28.08;;;;;;;1.17;79.29;98947.06;4934854;29;20364;-67
2021/01/14 05:27:51;;;;;;;72.03;28.10;;;;;;;1.19;79.40;98953.06;4933514;29;20503;-67
2021/01/14 05:30:18;;;;;;;58.05;27.60;;;;;;;1.20;79.41;98950.44;4934455;29;20058;-67
2021/01/14 05:32:46;;;;;;;65.45;29.35;;;;;;;1.20;79.10;98957.34;4934381;29;20131;-67
2021/01/14 05:35:15;;;;;;;66.75;29.23;;;;;;;1.20;79.23;98960.75;4934561;29;20056;-67
2021/01/14 05:37:43;;;;;;;68.40;29.58;;;;;;;1.18;78.89;98961.69;4934125;29;20044;-67
2021/01/14 05:40:11;;;;;;;71.13;30.52;;;;;;;1.16;79.10;98969.47;4935226;29;20048;-66
2021/01/14 05:42:38;;;;;;;63.80;27.35;;;;;;;1.13;79.12;98979.00;4933209;29;20048;-66
2021/01/14 05:45:06;;;;;;;68.05;27.83;;;;;;;1.09;79.14;98977.38;4934659;29;20102;-66
2021/01/14 05:47:32;;;;;;;65.63;29.35;;;;;;;1.05;79.07;98981.75;4934859;29;20123;-66
2021/01/14 05:50:00;;;;;;;71.20;28.80;;;;;;;1.04;79.04;98984.34;4935116;29;20490;-66
2021/01/14 05:52:29;;;;;;;69.88;29.85;;;;;;;1.01;79.07;98977.50;4934838;29;20135;-67
2021/01/14 05:55:01;;;;;;;67.07;30.73;;;;;;;0.99;79.08;98979.28;4935503;29;20048;-66
2021/01/14 05:57:31;;;;;;;;;;;;;;;1.06;79.04;98983.44;4940112;29;20052;-65
2021/01/14 06:00:00;;;;;;;64.20;27.42;;;;;;;0.90;79.17;98980.31;4945336;29;19927;-67
2021/01/14 06:02:28;;;;;;;59.50;28.63;;;;;;;0.86;79.32;98981.25;4932838;29;20047;-65
2021/01/14 06:04:54;;;;;;;68.35;31.27;;;;;;;0.83;79.21;98994.22;4931364;29;20043;-61
2021/01/14 06:07:20;;;;;;;65.35;29.83;;;;;;;0.82;79.21;98989.91;4930426;29;20054;-62
2021/01/14 06:09:48;;;;;;;62.47;27.92;;;;;;;0.80;79.06;98993.41;4938836;29;20134;-62
2021/01/14 06:12:15;;;;;;;64.32;28.80;;;;;;;0.79;78.98;98996.88;4934760;29;20044;-61
2021/01/14 06:14:41;;;;;;;65.43;28.65;;;;;;;0.75;79.06;98998.66;4932330;29;20047;-61
2021/01/14 06:17:08;;;;;;;61.75;27.33;;;;;;;0.70;79.02;99005.66;4934694;29;20527;-61
2021/01/14 06:19:35;;;;;;;60.72;25.55;;;;;;;0.68;78.89;99007.41;4934110;29;20397;-60
2021/01/14 06:22:03;;;;;;;61.60;28.13;;;;;;;0.64;79.13;99016.09;4934011;29;20055;-62
2021/01/14 06:24:30;;;;;;;66.35;28.75;;;;;;;0.63;79.17;99019.53;4933586;29;20048;-61
2021/01/14 06:27:08;;;;;;;70.75;28.77;;;;;;;0.63;79.09;99022.13;4934411;29;20515;-62
2021/01/14 06:29:36;;;;;;;63.65;30.27;;;;;;;0.64;79.13;99028.97;4934482;29;20054;-61
2021/01/14 06:32:07;;;;;;;93.68;38.08;;;;;;;0.66;79.09;99024.63;4934160;29;20138;-62
2021/01/14 06:34:34;;;;;;;97.75;36.83;;;;;;;0.70;79.28;99036.59;4931888;29;20048;-63
2021/01/14 06:37:08;;;;;;;77.55;32.38;;;;;;;0.71;79.30;99042.59;4931611;29;20488;-63
2021/01/14 06:39:39;;;;;;;84.60;32.67;;;;;;;0.74;79.16;99047.72;4930387;29;20043;-63
2021/01/14 06:42:26;;;;;;;98.50;38.40;;;;;;;0.76;79.41;99051.97;4933775;29;20043;-64
2021/01/14 06:44:58;;;;;;;102.50;36.63;;;;;;;0.79;79.31;99056.22;4934606;29;20519;-64
2021/01/14 06:47:35;;;;;;;77.63;34.47;;;;;;;0.80;79.31;99058.75;4932559;29;20048;-64
2021/01/14 06:50:23;;;;;;;75.45;31.42;;;;;;;0.83;79.33;99068.16;4930545;29;20071;-64
2021/01/14 06:52:56;;;;;;;72.63;32.75;;;;;;;0.85;79.27;99077.59;4936484;29;20052;-66
2021/01/14 06:55:23;;;;;;;67.43;30.98;;;;;;;0.88;79.39;99077.53;4936589;29;20051;-65
2021/01/14 06:58:07;;;;;;;71.70;29.17;;;;;;;0.90;79.33;99086.09;4937042;29;20046;-64
2021/01/14 07:00:35;;;;;;;65.85;30.20;;;;;;;0.96;79.32;99094.59;4936127;29;20058;-65
2021/01/14 07:06:22;;;;;;;54.85;24.70;;;;;;;10.85;68.09;99058.72;5148229;27;20394;-61
2021/01/14 07:09:02;;;;;;;40.42;22.13;;;;;;;13.06;63.69;99061.41;5141541;27;20044;-52
2021/01/14 07:11:34;;;;;;;43.30;21.33;;;;;;;14.98;64.15;99064.47;5150164;27;20042;-54
2021/01/14 07:14:15;;;;;;;35.35;20.25;;;;;;;16.58;64.80;99065.94;5140904;27;20055;-51
2021/01/14 07:16:45;;;;;;;38.13;20.20;;;;;;;17.91;64.61;99063.53;5117241;28;20048;-54
2021/01/14 07:19:12;;;;;;;35.38;21.20;;;;;;;18.99;63.94;99066.22;5112782;28;20048;-54
2021/01/14 07:21:42;;;;;;;36.15;19.65;;;;;;;19.86;62.86;99076.69;5118616;27;20044;-52
2021/01/14 07:24:21;;;;;;;33.58;18.33;;;;;;;20.68;61.50;99078.50;5120040;28;20053;-54
2021/01/14 07:26:50;;;;;;;32.42;19.50;;;;;;;21.36;58.41;99072.63;5112597;27;20048;-52
2021/01/14 07:29:16;;;;;;;30.52;19.27;;;;;;;21.95;56.09;99078.97;5125346;28;20474;-54
2021/01/14 07:31:48;;;;;;;34.13;19.63;;;;;;;22.43;53.93;99083.69;5120695;28;20048;-53
2021/01/14 07:34:32;;;;;;;32.63;19.33;;;;;;;22.91;53.52;99085.66;5123520;28;20047;-51
2021/01/14 07:36:59;;;;;;;32.78;19.30;;;;;;;23.32;51.05;99091.84;5114786;28;20096;-51
2021/01/14 07:40:01;;;;;;;30.00;18.42;;;;;;;23.66;50.82;99088.97;5118640;28;20491;-53
2021/01/14 07:42:29;;;;;;;30.27;18.50;;;;;;;24.04;48.87;99091.91;5112281;28;20498;-55
2021/01/14 07:44:57;;;;;;;36.13;19.83;;;;;;;24.29;47.48;99096.16;5121857;27;20040;-54
2021/01/14 07:47:27;;;;;;;31.83;19.50;;;;;;;24.54;46.35;99096.88;5115135;28;20057;-50
2021/01/14 07:49:53;;;;;;;32.58;18.98;;;;;;;24.78;45.96;99101.28;5116695;27;20039;-51
2021/01/14 07:52:32;;;;;;;31.67;19.88;;;;;;;24.94;45.35;99095.78;5109514;28;20168;-55
2021/01/14 07:54:59;;;;;;;31.20;18.80;;;;;;;25.16;43.83;99102.19;5118898;28;20455;-52
2021/01/14 07:57:29;;;;;;;30.85;19.20;;;;;;;25.30;42.92;99105.09;5120081;28;20146;-51
2021/01/14 08:00:08;;;;;;;35.55;20.95;;;;;;;25.46;42.42;99115.69;5112448;27;20502;-54
2021/01/14 08:03:07;;;;;;;27.92;18.23;;;;;;;25.62;41.92;99112.88;5111167;28;20101;-53
2021/01/14 08:05:37;;;;;;;26.55;17.80;;;;;;;25.76;40.50;99112.06;5112627;28;20074;-54
2021/01/14 08:08:32;;;;;;;28.10;18.02;;;;;;;25.89;40.82;99122.19;5115035;28;20521;-54
2021/01/14 08:11:12;;;;;;;28.08;18.10;;;;;;;26.04;39.91;99122.19;5115589;28;20073;-55
2021/01/14 08:14:04;;;;;;;28.58;18.95;;;;;;;26.17;39.26;99133.09;5126627;28;20109;-53
2021/01/14 08:16:32;;;;;;;27.30;17.42;;;;;;;26.29;37.85;99134.31;5102841;28;20048;-53
2021/01/14 08:19:29;;;;;;;27.40;18.00;;;;;;;26.36;37.49;99129.88;5105867;28;20036;-54
2021/01/14 08:22:13;;;;;;;24.70;16.50;;;;;;;26.51;37.71;99142.47;5098616;28;20044;-55
2021/01/14 08:24:44;;;;;;;26.48;17.05;;;;;;;26.58;35.73;99138.00;5111234;28;20043;-53
2021/01/14 08:27:12;;;;;;;23.05;17.58;;;;;;;26.66;35.02;99135.22;5103408;28;20450;-56
2021/01/14 08:29:44;;;;;;;23.83;17.33;;;;;;;26.70;34.35;99136.50;5105276;28;20092;-54
2021/01/14 08:32:33;;;;;;;24.17;17.15;;;;;;;26.78;34.22;99139.06;5096854;28;20065;-55
2021/01/14 08:35:00;;;;;;;21.45;16.73;;;;;;;26.87;33.11;99143.31;5108307;28;20052;-55
2021/01/14 08:37:29;;;;;;;27.98;17.95;;;;;;;26.93;32.45;99139.88;5105042;28;20048;-54
2021/01/14 08:39:59;;;;;;;21.92;16.73;;;;;;;27.00;32.17;99159.63;5100930;28;20062;-54
2021/01/14 08:42:33;;;;;;;25.08;17.13;;;;;;;27.11;31.96;99162.84;5105659;28;20131;-54
2021/01/14 08:45:12;;;;;;;26.77;17.23;;;;;;;27.22;31.74;99154.25;5108125;27;20048;-53
2021/01/14 08:47:59;;;;;;;22.75;16.38;;;;;;;27.30;31.87;99157.66;5106445;28;20115;-55
2021/01/14 08:50:44;;;;;;;28.00;17.70;;;;;;;27.37;31.22;99173.84;5101887;28;20074;-54
2021/01/14 08:53:11;;;;;;;23.42;16.17;;;;;;;27.42;30.18;99189.41;5100863;28;20054;-52
2021/01/14 08:55:39;;;;;;;25.30;17.88;;;;;;;27.43;29.74;99183.84;5106058;28;20064;-53
2021/01/14 08:58:07;;;;;;;25.50;16.33;;;;;;;27.44;29.43;99193.59;5105705;28;20071;-55
2021/01/14 09:00:36;;;;;;;24.08;17.13;;;;;;;27.47;28.71;99195.06;5105469;28;20051;-55
2021/01/14 09:03:03;;;;;;;24.75;16.65;;;;;;;27.48;28.35;99208.31;5100538;28;20495;-54
2021/01/14 09:05:30;;;;;;;25.52;17.10;;;;;;;27.50;27.84;99208.16;5105613;28;20048;-53
2021/01/14 09:08:08;;;;;;;26.45;17.08;;;;;;;27.51;28.11;99209.81;5100205;28;20070;-57
2021/01/14 09:10:56;;;;;;;24.13;17.05;;;;;;;27.49;28.29;99212.69;5100234;28;20083;-46
2021/01/14 09:13:24;;;;;;;25.08;17.80;;;;;;;27.54;27.82;99220.19;5104661;28;20126;-46
2021/01/14 09:15:53;;;;;;;22.30;16.23;;;;;;;27.54;27.59;99221.03;5100856;28;20128;-46
2021/01/14 09:18:29;;;;;;;24.75;16.25;;;;;;;27.54;27.30;99223.72;5098559;28;20048;-46
2021/01/14 09:20:56;;;;;;;21.77;15.85;;;;;;;27.61;27.00;99243.44;5101454;28;20127;-44
2021/01/14 09:23:24;;;;;;;26.17;17.52;;;;;;;27.61;26.38;99248.84;5107165;28;20494;-48
2021/01/14 09:25:55;;;;;;;23.58;17.13;;;;;;;27.60;26.39;99251.72;5107481;28;20054;-49
2021/01/14 09:28:24;;;;;;;24.98;17.05;;;;;;;27.63;26.22;99251.38;5097364;28;20040;-45
2021/01/14 09:30:55;;;;;;;23.33;16.80;;;;;;;27.63;25.97;99257.56;5099770;28;20569;-46
2021/01/14 09:33:23;;;;;;;24.50;16.95;;;;;;;27.69;25.96;99260.53;5105567;28;20126;-45
2021/01/14 09:36:00;;;;;;;24.38;16.65;;;;;;;27.67;26.35;99262.56;5111449;28;20126;-45
2021/01/14 09:38:26;;;;;;;22.00;16.50;;;;;;;27.74;26.00;99267.00;5095546;28;20048;-48
2021/01/14 09:40:53;;;;;;;22.45;16.23;;;;;;;27.77;26.39;99263.09;5100214;28;20036;-52
2021/01/14 09:43:21;;;;;;;22.23;16.70;;;;;;;27.82;25.93;99269.56;5107950;28;20046;-51
2021/01/14 09:45:48;;;;;;;19.70;15.98;;;;;;;27.85;26.49;99266.47;5107041;28;20044;-52
2021/01/14 09:48:15;;;;;;;23.35;16.40;;;;;;;27.91;26.41;99281.06;5096776;28;20683;-51
2021/01/14 09:50:41;;;;;;;21.20;15.95;;;;;;;27.94;26.48;99277.97;5102157;28;20446;-53
2021/01/14 09:53:09;;;;;;;23.23;16.10;;;;;;;27.94;26.31;99280.66;5106859;27;20043;-54
2021/01/14 09:55:37;;;;;;;20.85;14.93;;;;;;;27.97;26.67;99285.66;5105505;28;20474;-52
2021/01/14 09:58:03;;;;;;;22.77;16.17;;;;;;;27.98;26.34;99287.31;5109289;28;20048;-52
2021/01/14 10:00:30;;;;;;;21.38;15.00;;;;;;;27.99;26.53;99275.53;5093691;28;20509;-58
2021/01/14 10:03:06;;;;;;;23.33;16.95;;;;;;;27.97;26.63;99280.28;5098499;28;20132;-59
2021/01/14 10:05:33;;;;;;;27.23;17.33;;;;;;;28.02;26.14;99277.81;5093662;28;20047;-54
2021/01/14 10:08:03;;;;;;;26.63;17.48;;;;;;;28.02;26.66;99274.28;5091948;28;20058;-57
2021/01/14 10:10:30;;;;;;;23.45;17.70;;;;;;;28.02;26.34;99288.59;5101520;28;20036;-56
2021/01/14 10:12:58;;;;;;;22.35;15.55;;;;;;;28.00;26.32;99285.28;5097147;28;20048;-50
2021/01/14 10:15:24;;;;;;;24.45;15.70;;;;;;;27.98;26.39;99295.41;5101983;28;20047;-54
2021/01/14 10:17:50;;;;;;;20.33;15.77;;;;;;;27.97;26.36;99293.75;5101594;28;20127;-50
2021/01/14 10:20:17;;;;;;;23.40;15.52;;;;;;;27.98;26.73;99297.28;5105175;28;20047;-52
2021/01/14 10:22:47;;;;;;;22.98;14.95;;;;;;;27.95;26.64;99290.41;5098905;28;20046;-56
2021/01/14 10:25:14;;;;;;;20.45;14.32;;;;;;;27.99;26.95;99294.38;5101875;28;20070;-55
2021/01/14 10:27:41;;;;;;;21.02;15.05;;;;;;;28.00;26.96;99287.97;5107943;28;20388;-55
2021/01/14 10:30:18;;;;;;;24.20;14.65;;;;;;;27.98;27.06;99292.72;5104516;28;20048;-52
2021/01/14 10:32:45;;;;;;;22.25;14.90;;;;;;;28.05;26.84;99298.97;5103849;28;20056;-56
2021/01/14 10:35:23;;;;;;;17.98;14.18;;;;;;;28.02;26.77;99302.06;5105305;28;20161;-50
2021/01/14 10:38:01;;;;;;;19.85;14.02;;;;;;;28.05;27.04;99296.28;5098392;28;20046;-45
2021/01/14 10:40:33;;;;;;;20.55;14.40;;;;;;;28.07;26.70;99299.63;5098843;28;20043;-45
2021/01/14 10:43:00;;;;;;;18.70;14.00;;;;;;;28.14;26.30;99310.47;5105137;28;20047;-46
2021/01/14 10:45:26;;;;;;;19.10;13.75;;;;;;;28.13;26.63;99306.94;5104635;28;20126;-47
2021/01/14 10:48:05;;;;;;;18.63;12.82;;;;;;;28.12;26.44;99301.75;5104933;28;20495;-47
2021/01/14 10:50:40;;;;;;;16.67;12.57;;;;;;;28.17;26.38;99313.59;5098165;28;20048;-46
2021/01/14 10:53:07;;;;;;;18.20;13.35;;;;;;;28.21;26.84;99320.28;5102858;28;20051;-46
2021/01/14 10:55:34;;;;;;;18.52;13.23;;;;;;;28.23;26.18;99322.75;5102319;28;20143;-45
2021/01/14 10:58:01;;;;;;;16.48;12.77;;;;;;;28.24;26.80;99319.88;5102873;28;20058;-47
2021/01/14 11:00:33;;;;;;;19.85;13.18;;;;;;;28.24;26.61;99310.97;5098717;28;20093;-46
2021/01/14 11:03:00;;;;;;;21.13;13.38;;;;;;;28.21;26.52;99317.56;5090932;28;20468;-48
2021/01/14 11:05:43;;;;;;;20.52;13.95;;;;;;;27.24;25.74;99327.09;5094750;28;20083;-46
2021/01/14 11:08:12;;;;;;;20.80;13.77;;;;;;;25.81;25.75;99326.28;5097702;28;20550;-48
2021/01/14 11:10:38;;;;;;;20.73;14.57;;;;;;;24.70;25.91;99330.94;5097478;28;20036;-45
2021/01/14 11:13:06;;;;;;;20.95;13.27;;;;;;;23.69;26.34;99331.28;5104204;28;20510;-47
2021/01/14 11:15:33;;;;;;;17.63;12.80;;;;;;;23.01;26.47;99334.06;5103428;28;20054;-46
2021/01/14 11:18:00;;;;;;;18.48;12.57;;;;;;;22.45;26.84;99335.38;5104500;28;20071;-48
2021/01/14 11:20:26;;;;;;;17.20;11.68;;;;;;;22.10;26.58;99331.81;5101778;28;20036;-47
2021/01/14 11:22:53;;;;;;;18.90;12.15;;;;;;;21.78;26.48;99342.16;5100502;28;20065;-48
2021/01/14 11:25:20;;;;;;;15.38;10.10;;;;;;;21.37;26.79;99347.06;5104365;28;20124;-49
2021/01/14 11:27:46;;;;;;;16.27;10.68;;;;;;;20.97;27.09;99345.53;5102008;28;20121;-44
2021/01/14 11:30:13;;;;;;;17.15;11.60;;;;;;;20.50;27.43;99338.56;5100043;28;20070;-44
2021/01/14 11:32:39;;;;;;;18.60;12.13;;;;;;;20.12;27.87;99337.59;5096474;28;20491;-46
2021/01/14 11:35:06;;;;;;;19.80;13.05;;;;;;;19.90;27.91;99345.88;5099045;28;20058;-48
2021/01/14 11:37:32;;;;;;;21.75;13.20;;;;;;;19.65;28.31;99342.78;5094923;28;20050;-45
2021/01/14 11:39:59;;;;;;;17.48;11.75;;;;;;;19.33;28.45;99353.59;5113679;28;20482;-46